Time;durP1;ratioP1;P1;durP2;ratioP2;P2;SDS_P1;SDS_P2;PMS_P1;PMS_P2;Temp;Humidity;BMP_temperature;BMP_pressure;BME280_temperature;BME280_humidity;BME280_pressure;Samples;Min_cycle;Max_cycle;Signal;HPM_P1;HPM_P2
2023/07/17 00:00:17;;;;;;;2.55;1.00;;;23.40;62.70;;;;;;2529098;54;20912;-69
2023/07/17 00:02:43;;;;;;;3.62;1.10;;;23.40;62.70;;;;;;2274051;55;20901;-68
2023/07/17 00:05:10;;;;;;;3.22;0.88;;;23.50;62.80;;;;;;2293467;55;20972;-69
2023/07/17 00:07:37;;;;;;;2.55;1.20;;;23.50;62.80;;;;;;2293407;55;21441;-68
2023/07/17 00:10:04;;;;;;;2.40;0.95;;;23.50;62.80;;;;;;2529306;54;20900;-69
2023/07/17 00:12:32;;;;;;;2.62;1.15;;;23.50;62.80;;;;;;2528450;54;20893;-69
2023/07/17 00:14:58;;;;;;;2.20;1.00;;;23.50;62.80;;;;;;2528040;54;21738;-74
2023/07/17 00:17:25;;;;;;;3.15;1.20;;;23.50;62.80;;;;;;2292946;55;20937;-68
2023/07/17 00:19:55;;;;;;;2.75;0.90;;;23.50;62.80;;;;;;2529142;54;20896;-69
2023/07/17 00:22:22;;;;;;;2.70;1.10;;;23.50;62.60;;;;;;2293521;55;20933;-72
2023/07/17 00:24:49;;;;;;;2.72;1.10;;;23.50;62.80;;;;;;2272254;55;20925;-68
2023/07/17 00:27:16;;;;;;;2.17;0.90;;;23.50;62.90;;;;;;2528683;54;20925;-69
2023/07/17 00:29:44;;;;;;;2.65;1.00;;;23.50;63.00;;;;;;2526892;54;21421;-68
2023/07/17 00:32:13;;;;;;;2.47;0.88;;;23.50;63.00;;;;;;2293168;55;20952;-68
2023/07/17 00:34:39;;;;;;;2.58;1.00;;;23.50;62.80;;;;;;2287230;55;20994;-73
2023/07/17 00:37:06;;;;;;;2.45;0.93;;;23.50;63.00;;;;;;2497699;55;21013;-68
2023/07/17 00:39:32;;;;;;;2.80;1.08;;;23.50;63.00;;;;;;2274467;55;21052;-68
2023/07/17 00:42:01;;;;;;;1.92;0.90;;;23.50;63.00;;;;;;2525148;54;21242;-69
2023/07/17 00:44:27;;;;;;;2.45;1.15;;;23.40;62.90;;;;;;2292962;56;20968;-69
2023/07/17 00:46:54;;;;;;;2.45;1.08;;;23.50;63.00;;;;;;2525094;54;21011;-70
2023/07/17 00:49:24;;;;;;;2.87;1.12;;;23.50;63.10;;;;;;2292131;55;20919;-68
2023/07/17 00:51:51;;;;;;;2.95;1.20;;;23.50;63.10;;;;;;2292507;55;20921;-67
2023/07/17 00:54:18;;;;;;;2.83;1.30;;;23.50;63.10;;;;;;2292842;55;21048;-69
2023/07/17 00:56:45;;;;;;;2.10;0.88;;;23.50;63.10;;;;;;2292904;55;21595;-68
2023/07/17 00:59:17;;;;;;;3.33;1.00;;;23.50;63.20;;;;;;2524116;54;21010;-71
2023/07/17 01:01:43;;;;;;;;;;;23.50;63.30;;;;;;2278563;55;20936;-71
2023/07/17 01:04:10;;;;;;;2.50;1.10;;;23.50;62.00;;;;;;2273686;54;20056;-69
2023/07/17 01:06:38;;;;;;;2.42;0.90;;;23.50;63.40;;;;;;2292133;55;21426;-72
2023/07/17 01:09:06;;;;;;;2.22;0.80;;;23.50;63.30;;;;;;2293076;55;20921;-68
2023/07/17 01:11:33;;;;;;;2.95;1.08;;;23.40;63.20;;;;;;2527398;54;20965;-70
2023/07/17 01:13:59;;;;;;;4.18;1.20;;;23.40;63.20;;;;;;2526921;54;20952;-68
2023/07/17 01:16:25;;;;;;;2.50;1.10;;;23.40;63.30;;;;;;2292377;55;21825;-67
2023/07/17 01:18:52;;;;;;;1.95;0.93;;;23.40;63.40;;;;;;2292710;55;21109;-71
2023/07/17 01:21:20;;;;;;;3.62;1.00;;;23.40;63.50;;;;;;2528404;54;22183;-68
2023/07/17 01:23:46;;;;;;;3.08;1.10;;;23.40;63.40;;;;;;2292439;55;21493;-72
2023/07/17 01:26:17;;;;;;;2.50;0.90;;;23.40;63.60;;;;;;2528185;54;20956;-72
2023/07/17 01:28:44;;;;;;;3.58;1.20;;;23.40;63.30;;;;;;2292126;55;21069;-68
2023/07/17 01:31:11;;;;;;;3.58;1.10;;;23.40;63.60;;;;;;2528002;54;21063;-69
2023/07/17 01:33:37;;;;;;;3.08;1.00;;;23.40;63.60;;;;;;2290880;55;20956;-69
2023/07/17 01:36:04;;;;;;;3.00;1.10;;;23.40;63.60;;;;;;2282768;55;21564;-69
2023/07/17 01:38:31;;;;;;;2.33;0.80;;;23.40;63.60;;;;;;2515055;54;21067;-68
2023/07/17 01:40:58;;;;;;;2.60;1.20;;;23.40;63.60;;;;;;2527769;54;20970;-70
2023/07/17 01:43:24;;;;;;;2.80;1.10;;;23.30;63.50;;;;;;2527616;54;21081;-69
2023/07/17 01:45:50;;;;;;;3.08;1.20;;;23.30;63.50;;;;;;2290959;56;22089;-68
2023/07/17 01:48:17;;;;;;;3.47;1.02;;;23.30;63.50;;;;;;2528345;54;20968;-68
2023/07/17 01:50:46;;;;;;;2.72;0.90;;;23.30;63.50;;;;;;2509736;54;21466;-69
2023/07/17 01:53:18;;;;;;;3.22;1.12;;;23.30;63.30;;;;;;2520260;54;20957;-68
2023/07/17 01:55:44;;;;;;;2.78;1.02;;;23.20;63.10;;;;;;2292627;56;20920;-68
2023/07/17 01:58:10;;;;;;;2.70;0.90;;;23.20;63.30;;;;;;2527615;54;20924;-69
2023/07/17 02:00:37;;;;;;;2.33;1.00;;;23.20;63.40;;;;;;2291285;55;20932;-74
2023/07/17 02:03:03;;;;;;;2.00;0.98;;;23.20;63.40;;;;;;2293202;55;20948;-70
2023/07/17 02:05:30;;;;;;;3.00;0.88;;;23.20;63.50;;;;;;2284023;55;20953;-71
2023/07/17 02:07:57;;;;;;;3.30;1.08;;;23.20;63.50;;;;;;2516635;54;21533;-68
2023/07/17 02:10:27;;;;;;;2.03;1.00;;;23.20;63.50;;;;;;2292257;55;21840;-70
2023/07/17 02:12:53;;;;;;;3.05;1.10;;;23.20;63.50;;;;;;2292178;56;20904;-70
2023/07/17 02:15:20;;;;;;;4.50;1.10;;;23.10;63.50;;;;;;2292649;55;21390;-70
2023/07/17 02:17:47;;;;;;;2.58;1.12;;;23.10;63.50;;;;;;2292902;55;21758;-69
2023/07/17 02:20:13;;;;;;;2.58;1.17;;;23.10;63.40;;;;;;2503168;54;21002;-69
2023/07/17 02:22:40;;;;;;;2.60;1.10;;;23.10;63.40;;;;;;2525603;54;20924;-70
2023/07/17 02:25:07;;;;;;;2.92;1.00;;;23.10;63.40;;;;;;2528700;54;20960;-70
2023/07/17 02:27:34;;;;;;;2.53;1.20;;;23.10;63.40;;;;;;2292876;55;21750;-72
2023/07/17 02:30:00;;;;;;;2.50;1.25;;;23.00;63.30;;;;;;2528865;54;21692;-70
2023/07/17 02:32:29;;;;;;;3.78;1.40;;;23.00;63.40;;;;;;2293369;55;20952;-70
2023/07/17 02:34:57;;;;;;;2.30;0.90;;;23.00;63.30;;;;;;2292625;55;21017;-68
2023/07/17 02:37:24;;;;;;;2.62;0.90;;;23.00;63.50;;;;;;2293121;55;21064;-69
2023/07/17 02:39:51;;;;;;;3.03;1.35;;;23.00;63.50;;;;;;2528033;54;20924;-70
2023/07/17 02:42:18;;;;;;;2.78;1.33;;;23.00;63.50;;;;;;2528697;54;21008;-70
2023/07/17 02:44:45;;;;;;;3.65;1.10;;;22.90;63.40;;;;;;2292366;55;20999;-72
2023/07/17 02:47:11;;;;;;;3.47;1.33;;;22.90;63.50;;;;;;2501528;54;20981;-71
2023/07/17 02:49:38;;;;;;;5.57;1.50;;;22.90;63.60;;;;;;2292471;55;21079;-73
2023/07/17 02:52:07;;;;;;;3.78;1.55;;;22.90;63.70;;;;;;2527876;54;21058;-70
2023/07/17 02:54:36;;;;;;;3.72;1.17;;;22.80;63.40;;;;;;2527571;54;21365;-69
2023/07/17 02:57:04;;;;;;;3.92;1.17;;;22.90;63.70;;;;;;2527247;54;20976;-70
2023/07/17 02:59:30;;;;;;;2.80;1.25;;;22.90;63.70;;;;;;2291779;55;21036;-70
2023/07/17 03:01:57;;;;;;;2.60;1.20;;;22.90;63.70;;;;;;2520636;54;21056;-70
2023/07/17 03:04:25;;;;;;;3.22;1.40;;;22.80;63.70;;;;;;2292608;55;21015;-73
2023/07/17 03:06:51;;;;;;;3.35;1.30;;;22.90;63.80;;;;;;2527636;54;20909;-70
2023/07/17 03:09:18;;;;;;;2.60;1.20;;;22.80;63.60;;;;;;2292505;55;20888;-70
2023/07/17 03:11:44;;;;;;;2.50;1.20;;;22.80;63.60;;;;;;2292437;55;20933;-70
2023/07/17 03:14:12;;;;;;;2.90;1.20;;;22.80;63.60;;;;;;2292732;55;20931;-72
2023/07/17 03:16:38;;;;;;;2.83;1.27;;;22.80;63.60;;;;;;2292347;55;21019;-67
2023/07/17 03:19:04;;;;;;;2.35;1.08;;;22.80;63.60;;;;;;2528178;54;20924;-72
2023/07/17 03:21:30;;;;;;;3.67;1.33;;;22.80;63.60;;;;;;2527367;54;20962;-70
2023/07/17 03:23:57;;;;;;;3.20;1.20;;;22.70;63.50;;;;;;2291424;55;21025;-68
2023/07/17 03:26:24;;;;;;;3.95;1.25;;;22.70;63.50;;;;;;2275997;55;20924;-68
2023/07/17 03:28:54;;;;;;;2.60;1.20;;;22.70;63.60;;;;;;2527936;54;20956;-70
2023/07/17 03:31:20;;;;;;;4.07;1.50;;;22.70;63.60;;;;;;2523474;54;21073;-70
2023/07/17 03:33:47;;;;;;;3.15;1.40;;;22.70;63.70;;;;;;2505076;54;20984;-69
2023/07/17 03:36:13;;;;;;;3.35;1.35;;;22.70;63.70;;;;;;2292964;55;20901;-70
2023/07/17 03:38:42;;;;;;;2.90;1.33;;;22.70;63.70;;;;;;2527762;54;21067;-70
2023/07/17 03:41:08;;;;;;;3.50;1.27;;;22.70;63.50;;;;;;2528077;54;20924;-73
2023/07/17 03:43:38;;;;;;;2.75;1.20;;;22.60;63.60;;;;;;2528157;54;20960;-69
2023/07/17 03:46:06;;;;;;;3.27;1.50;;;22.60;63.40;;;;;;2278698;55;20953;-71
2023/07/17 03:48:32;;;;;;;3.05;1.35;;;22.60;63.60;;;;;;2522480;54;21460;-71
2023/07/17 03:50:59;;;;;;;2.90;1.50;;;22.60;63.60;;;;;;2528145;54;20992;-71
2023/07/17 03:53:27;;;;;;;3.03;1.27;;;22.60;63.60;;;;;;2292339;55;20956;-70
2023/07/17 03:55:54;;;;;;;3.03;1.20;;;22.60;63.60;;;;;;2527231;54;20959;-72
2023/07/17 03:58:21;;;;;;;3.85;1.08;;;22.60;63.60;;;;;;2274008;55;21056;-71
2023/07/17 04:00:48;;;;;;;3.22;1.27;;;22.60;63.70;;;;;;2500339;54;21017;-69
2023/07/17 04:03:14;;;;;;;3.33;1.20;;;22.50;63.60;;;;;;2248878;55;2792352;-70
2023/07/17 04:05:41;;;;;;;3.47;1.50;;;22.50;63.60;;;;;;2527775;54;20912;-71
2023/07/17 04:08:07;;;;;;;3.37;1.17;;;22.50;63.60;;;;;;2528347;54;20932;-71
2023/07/17 04:10:34;;;;;;;2.97;1.30;;;22.50;63.70;;;;;;2292275;55;21042;-70
2023/07/17 04:13:03;;;;;;;2.60;1.20;;;22.50;63.60;;;;;;2293089;55;20928;-70
2023/07/17 04:15:31;;;;;;;2.60;1.30;;;22.50;63.50;;;;;;2528002;54;21016;-70
2023/07/17 04:17:57;;;;;;;3.28;1.23;;;22.50;63.60;;;;;;2275807;55;21633;-70
2023/07/17 04:20:24;;;;;;;3.40;1.35;;;22.40;63.60;;;;;;2515302;54;20930;-70
2023/07/17 04:22:53;;;;;;;4.05;1.42;;;22.40;63.60;;;;;;2511770;54;21059;-73
2023/07/17 04:25:19;;;;;;;3.60;1.37;;;22.40;63.50;;;;;;2528307;54;20920;-70
2023/07/17 04:27:48;;;;;;;2.92;1.27;;;22.40;63.60;;;;;;2527660;54;21968;-73
2023/07/17 04:30:14;;;;;;;3.35;1.40;;;22.30;63.50;;;;;;2292977;55;21409;-70
2023/07/17 04:32:43;;;;;;;4.10;1.33;;;22.40;63.70;;;;;;2292321;56;21385;-72
2023/07/17 04:35:09;;;;;;;2.95;1.55;;;22.30;63.60;;;;;;2292483;55;20923;-72
2023/07/17 04:37:36;;;;;;;3.17;1.30;;;22.30;63.60;;;;;;2501052;54;21001;-71
2023/07/17 04:40:05;;;;;;;3.85;1.25;;;22.30;63.70;;;;;;2292917;55;20915;-70
2023/07/17 04:42:31;;;;;;;3.35;1.30;;;22.30;63.60;;;;;;2502589;54;20978;-70
2023/07/17 04:44:57;;;;;;;2.75;1.27;;;22.30;63.60;;;;;;2273498;55;20916;-71
2023/07/17 04:47:24;;;;;;;2.40;1.20;;;22.30;63.70;;;;;;2292834;55;20912;-68
2023/07/17 04:49:53;;;;;;;3.35;1.40;;;22.30;63.70;;;;;;2527865;54;21412;-73
2023/07/17 04:52:19;;;;;;;2.62;1.33;;;22.30;63.80;;;;;;2292426;55;20985;-70
2023/07/17 04:54:46;;;;;;;3.70;1.45;;;22.30;63.80;;;;;;2527393;54;21520;-71
2023/07/17 04:57:12;;;;;;;2.87;1.40;;;22.20;63.80;;;;;;2528513;54;21426;-70
2023/07/17 04:59:38;;;;;;;5.40;1.62;;;22.20;63.80;;;;;;2290042;55;21920;-72
2023/07/17 05:02:05;;;;;;;3.25;1.08;;;22.20;63.80;;;;;;2508582;54;20892;-70
2023/07/17 05:04:31;;;;;;;2.33;1.10;;;22.20;64.60;;;;;;2527652;54;21746;-67
2023/07/17 05:06:58;;;;;;;4.00;1.20;;;22.20;63.90;;;;;;2292229;55;20904;-69
2023/07/17 05:09:24;;;;;;;3.45;1.60;;;22.20;64.00;;;;;;2292725;56;20992;-70
2023/07/17 05:11:51;;;;;;;3.00;1.20;;;22.20;64.10;;;;;;2527633;54;21424;-74
2023/07/17 05:14:20;;;;;;;3.40;1.50;;;22.20;64.10;;;;;;2528251;54;21429;-71
2023/07/17 05:16:47;;;;;;;3.58;1.20;;;22.20;64.20;;;;;;2527874;54;20924;-70
2023/07/17 05:19:13;;;;;;;3.47;1.35;;;22.20;64.20;;;;;;2292917;55;20956;-70
2023/07/17 05:21:39;;;;;;;2.30;1.10;;;22.20;64.20;;;;;;2292921;55;20952;-70
2023/07/17 05:24:06;;;;;;;3.05;1.20;;;22.20;64.20;;;;;;2292991;55;21446;-70
2023/07/17 05:26:34;;;;;;;3.20;1.48;;;22.30;64.40;;;;;;2528872;54;20920;-69
2023/07/17 05:29:01;;;;;;;3.97;1.20;;;22.30;64.40;;;;;;2293448;55;21005;-68
2023/07/17 05:31:27;;;;;;;3.78;1.60;;;22.30;64.60;;;;;;2506401;54;20988;-70
2023/07/17 05:33:55;;;;;;;3.10;1.55;;;22.30;64.60;;;;;;2292197;56;21004;-73
2023/07/17 05:36:22;;;;;;;3.42;1.62;;;22.30;64.60;;;;;;2527944;54;20920;-69
2023/07/17 05:38:49;;;;;;;3.33;1.75;;;22.30;64.70;;;;;;2292307;55;20948;-73
2023/07/17 05:41:16;;;;;;;3.75;1.70;;;22.40;64.90;;;;;;2293041;56;20992;-72
2023/07/17 05:43:42;;;;;;;3.78;1.58;;;22.40;64.90;;;;;;2528100;54;21047;-73
2023/07/17 05:46:09;;;;;;;3.10;1.35;;;22.40;65.00;;;;;;2293096;55;20972;-71
2023/07/17 05:48:35;;;;;;;3.17;1.60;;;22.40;65.00;;;;;;2515205;54;21538;-73
2023/07/17 05:51:01;;;;;;;3.15;1.40;;;22.50;65.10;;;;;;2513468;54;21632;-71
2023/07/17 05:53:28;;;;;;;3.10;1.55;;;22.50;65.20;;;;;;2527149;54;21941;-70
2023/07/17 05:55:55;;;;;;;3.33;1.52;;;22.50;65.20;;;;;;2292504;55;20980;-73
2023/07/17 05:58:21;;;;;;;3.10;1.60;;;22.50;65.20;;;;;;2527545;54;20985;-70
2023/07/17 06:00:48;;;;;;;3.03;1.50;;;22.60;65.40;;;;;;2292042;55;20920;-73
2023/07/17 06:03:14;;;;;;;3.87;1.70;;;22.60;65.40;;;;;;2292587;55;20897;-71
2023/07/17 06:05:40;;;;;;;3.17;1.50;;;22.60;65.30;;;;;;2527555;54;20913;-71
2023/07/17 06:08:08;;;;;;;4.15;1.70;;;22.70;65.50;;;;;;2293096;55;20931;-70
2023/07/17 06:10:35;;;;;;;2.80;1.40;;;22.70;65.40;;;;;;2528218;54;20927;-74
2023/07/17 06:13:01;;;;;;;4.75;1.60;;;22.80;65.60;;;;;;2293015;55;20912;-70
2023/07/17 06:15:28;;;;;;;4.05;1.52;;;22.80;65.50;;;;;;2527413;54;20974;-70
2023/07/17 06:17:54;;;;;;;3.67;1.83;;;22.90;65.60;;;;;;2524206;54;20965;-71
2023/07/17 06:20:20;;;;;;;5.37;1.75;;;22.90;65.60;;;;;;2503452;54;20971;-69
2023/07/17 06:22:47;;;;;;;3.75;1.67;;;23.00;65.60;;;;;;2291458;55;21024;-70
2023/07/17 06:25:13;;;;;;;3.92;2.12;;;23.00;65.50;;;;;;2292292;55;20960;-69
2023/07/17 06:27:40;;;;;;;5.00;2.10;;;23.10;65.60;;;;;;2292497;56;20988;-68
2023/07/17 06:30:07;;;;;;;4.15;2.08;;;23.10;65.50;;;;;;2523383;54;20954;-68
2023/07/17 06:32:33;;;;;;;4.50;1.58;;;23.10;65.50;;;;;;2506244;54;21772;-68
2023/07/17 06:34:59;;;;;;;4.12;1.95;;;23.20;65.60;;;;;;2527467;54;20964;-70
2023/07/17 06:37:26;;;;;;;3.58;1.83;;;23.30;65.70;;;;;;2293156;55;20972;-71
2023/07/17 06:39:52;;;;;;;3.58;1.60;;;23.30;65.60;;;;;;2292120;55;20949;-70
2023/07/17 06:42:19;;;;;;;4.65;1.70;;;23.40;65.70;;;;;;2293133;56;20932;-69
2023/07/17 06:44:45;;;;;;;4.82;2.35;;;23.40;65.60;;;;;;2292905;55;20924;-69
2023/07/17 06:47:11;;;;;;;3.47;1.85;;;23.40;65.60;;;;;;2292702;55;20967;-69
2023/07/17 06:49:46;;;;;;;3.70;1.85;;;23.50;65.70;;;;;;2527614;54;20948;-71
2023/07/17 06:52:13;;;;;;;4.85;2.15;;;23.60;65.90;;;;;;2293046;56;20902;-69
2023/07/17 06:54:39;;;;;;;5.15;1.90;;;23.60;65.70;;;;;;2528090;54;20904;-69
2023/07/17 06:57:13;;;;;;;3.00;1.60;;;23.70;65.90;;;;;;2527898;54;20936;-72
2023/07/17 06:59:39;;;;;;;4.22;1.95;;;23.80;66.00;;;;;;2527020;54;21028;-73
2023/07/17 07:02:06;;;;;;;3.90;2.00;;;23.80;65.90;;;;;;2527780;54;21739;-69
2023/07/17 07:04:32;;;;;;;3.05;1.60;;;23.90;66.00;;;;;;2292862;56;21699;-70
2023/07/17 07:06:59;;;;;;;3.33;1.90;;;23.90;66.00;;;;;;2292466;55;21047;-68
2023/07/17 07:09:26;;;;;;;5.90;2.17;;;24.00;66.10;;;;;;2293088;55;20936;-69
2023/07/17 07:11:52;;;;;;;3.50;1.80;;;24.10;66.10;;;;;;2292317;55;20916;-69
2023/07/17 07:14:19;;;;;;;4.07;1.80;;;24.20;66.10;;;;;;2292962;55;21044;-68
2023/07/17 07:16:45;;;;;;;3.58;1.80;;;24.20;66.00;;;;;;2527968;54;20944;-70
2023/07/17 07:19:12;;;;;;;5.87;2.00;;;24.30;65.80;;;;;;2527345;54;20928;-72
2023/07/17 07:21:40;;;;;;;5.40;2.30;;;24.40;65.60;;;;;;2291451;55;21042;-69
2023/07/17 07:24:07;;;;;;;5.90;2.20;;;24.40;65.40;;;;;;2274295;55;20916;-72
2023/07/17 07:26:33;;;;;;;4.32;2.30;;;24.50;65.30;;;;;;2528290;54;20948;-70
2023/07/17 07:28:59;;;;;;;5.30;2.60;;;24.60;65.10;;;;;;2292873;55;21008;-70
2023/07/17 07:31:26;;;;;;;5.60;2.50;;;24.60;65.00;;;;;;2292205;55;20943;-70
2023/07/17 07:33:52;;;;;;;4.30;2.30;;;24.50;64.70;;;;;;2527713;54;20949;-70
2023/07/17 07:36:18;;;;;;;7.12;2.67;;;24.80;64.80;;;;;;2278953;55;20965;-70
2023/07/17 07:38:46;;;;;;;3.28;1.75;;;24.80;64.40;;;;;;2288492;55;20980;-70
2023/07/17 07:41:12;;;;;;;5.00;2.55;;;24.90;64.30;;;;;;2528131;54;20920;-69
2023/07/17 07:43:39;;;;;;;4.12;2.33;;;24.90;64.00;;;;;;2293062;55;20975;-69
2023/07/17 07:46:05;;;;;;;4.05;2.47;;;25.00;64.90;;;;;;2528198;54;21723;-70
2023/07/17 07:48:32;;;;;;;6.85;2.55;;;25.10;64.10;;;;;;2528692;54;20985;-69
2023/07/17 07:50:59;;;;;;;5.10;2.37;;;25.10;63.80;;;;;;2292545;55;21802;-74
2023/07/17 07:53:25;;;;;;;4.12;2.22;;;25.20;63.60;;;;;;2520094;54;20986;-73
2023/07/17 07:55:51;;;;;;;4.62;2.30;;;25.20;63.60;;;;;;2495693;55;21756;-69
2023/07/17 07:58:18;;;;;;;5.50;2.28;;;25.30;63.60;;;;;;2517455;54;20956;-70
2023/07/17 08:00:46;;;;;;;4.53;2.10;;;25.40;63.60;;;;;;2292263;55;20952;-71
2023/07/17 08:03:13;;;;;;;4.75;2.45;;;25.40;63.50;;;;;;2292895;55;20893;-69
2023/07/17 08:05:39;;;;;;;4.18;2.30;;;25.40;63.30;;;;;;2527538;54;20905;-69
2023/07/17 08:08:06;;;;;;;3.95;2.05;;;25.50;63.40;;;;;;2292818;55;20972;-69
2023/07/17 08:10:34;;;;;;;5.70;2.25;;;25.50;63.50;;;;;;2528194;54;20983;-70
2023/07/17 08:13:01;;;;;;;3.28;1.83;;;25.60;63.60;;;;;;2292991;55;21026;-68
2023/07/17 08:15:28;;;;;;;3.40;1.87;;;25.60;63.40;;;;;;2293368;55;20908;-68
2023/07/17 08:17:54;;;;;;;3.97;2.15;;;25.70;63.30;;;;;;2528452;54;20960;-70
2023/07/17 08:20:20;;;;;;;3.78;2.15;;;25.70;63.30;;;;;;2528661;54;20988;-70
2023/07/17 08:22:48;;;;;;;4.05;2.10;;;25.80;63.10;;;;;;2292225;55;21031;-68
2023/07/17 08:25:14;;;;;;;3.78;2.00;;;25.90;63.10;;;;;;2294939;55;20932;-66
2023/07/17 08:27:41;;;;;;;3.67;2.05;;;25.90;62.90;;;;;;2528395;54;20948;-68
2023/07/17 08:30:08;;;;;;;4.10;1.92;;;26.00;62.90;;;;;;2528517;54;20957;-68
2023/07/17 08:32:37;;;;;;;5.10;2.05;;;26.00;62.80;;;;;;2528475;54;20956;-72
2023/07/17 08:35:08;;;;;;;4.18;2.28;;;26.00;62.50;;;;;;2528326;54;21101;-69
2023/07/17 08:37:36;;;;;;;4.87;2.15;;;26.10;62.60;;;;;;2277053;55;21026;-73
2023/07/17 08:40:02;;;;;;;4.90;2.30;;;26.10;62.50;;;;;;2291558;55;21020;-70
2023/07/17 08:42:28;;;;;;;4.10;2.22;;;26.10;62.40;;;;;;2528658;54;20981;-68
2023/07/17 08:44:55;;;;;;;4.62;2.33;;;26.20;62.20;;;;;;2293129;55;20935;-73
2023/07/17 08:47:21;;;;;;;4.72;2.37;;;26.20;62.30;;;;;;2295745;55;21413;-70
2023/07/17 08:49:48;;;;;;;5.80;2.58;;;26.20;61.90;;;;;;2271649;55;20976;-69
2023/07/17 08:52:15;;;;;;;4.10;2.17;;;26.20;61.70;;;;;;2528484;54;20925;-67
2023/07/17 08:54:44;;;;;;;3.62;2.00;;;26.30;61.80;;;;;;2529019;54;21008;-69
2023/07/17 08:57:10;;;;;;;4.53;2.10;;;26.30;61.40;;;;;;2292901;55;21542;-69
2023/07/17 08:59:37;;;;;;;3.72;1.90;;;26.30;61.40;;;;;;2528171;54;20916;-69
2023/07/17 09:02:04;;;;;;;3.72;2.10;;;26.30;61.30;;;;;;2293393;55;21101;-74
2023/07/17 09:04:31;;;;;;;3.87;1.83;;;26.30;61.20;;;;;;2293147;56;20885;-70
2023/07/17 09:06:57;;;;;;;4.22;2.28;;;26.40;61.00;;;;;;2500862;54;20997;-73
2023/07/17 09:09:23;;;;;;;5.07;2.37;;;26.40;60.70;;;;;;2528639;54;20987;-69
2023/07/17 09:12:11;;;;;;;4.05;2.45;;;26.40;60.50;;;;;;2527730;54;20992;-70
2023/07/17 09:14:39;;;;;;;4.65;2.37;;;26.40;58.80;;;;;;2293274;55;21438;-69
2023/07/17 09:17:09;;;;;;;4.22;2.00;;;26.40;60.30;;;;;;2293136;55;20901;-68
2023/07/17 09:19:36;;;;;;;4.93;2.28;;;26.50;60.30;;;;;;2292983;55;21756;-70
2023/07/17 09:22:02;;;;;;;5.57;2.53;;;26.50;60.10;;;;;;2292465;56;22214;-69
2023/07/17 09:24:29;;;;;;;5.97;2.30;;;26.50;60.00;;;;;;2288459;55;21041;-71
2023/07/17 09:26:56;;;;;;;3.87;2.40;;;26.60;59.80;;;;;;2272441;55;20992;-69
2023/07/17 09:29:23;;;;;;;4.95;2.33;;;26.60;59.80;;;;;;2293021;55;20912;-68
2023/07/17 09:31:49;;;;;;;4.90;2.20;;;26.60;59.40;;;;;;2527862;54;21949;-68
2023/07/17 09:34:16;;;;;;;6.53;2.50;;;26.60;59.30;;;;;;2527579;54;20897;-68
2023/07/17 09:36:43;;;;;;;2.95;1.80;;;26.60;59.30;;;;;;2293025;55;21449;-68
2023/07/17 09:39:09;;;;;;;5.35;2.40;;;26.60;59.50;;;;;;2293149;55;20981;-69
2023/07/17 09:41:36;;;;;;;4.32;2.35;;;26.60;59.40;;;;;;2292699;56;20992;-68
2023/07/17 09:44:06;;;;;;;3.80;2.33;;;26.70;59.60;;;;;;2527832;54;20932;-68
2023/07/17 09:46:34;;;;;;;6.40;2.80;;;26.70;59.50;;;;;;2293136;55;20924;-69
2023/07/17 09:49:01;;;;;;;3.47;1.90;;;26.70;59.70;;;;;;2511779;54;21487;-71
2023/07/17 09:51:28;;;;;;;3.58;2.10;;;26.70;60.00;;;;;;2284852;55;20971;-72
2023/07/17 09:53:55;;;;;;;3.62;1.92;;;26.70;60.00;;;;;;2292517;55;20936;-72
2023/07/17 09:56:22;;;;;;;3.35;2.10;;;26.80;60.10;;;;;;2514159;54;20945;-71
2023/07/17 09:58:53;;;;;;;4.32;2.30;;;26.80;60.10;;;;;;2515373;54;20909;-69
2023/07/17 10:01:22;;;;;;;4.20;1.98;;;26.90;59.80;;;;;;2528457;54;20921;-69
2023/07/17 10:03:50;;;;;;;4.55;2.10;;;26.90;59.90;;;;;;2292328;56;21871;-68
2023/07/17 10:06:18;;;;;;;4.72;2.35;;;26.90;60.00;;;;;;2527909;54;20961;-68
2023/07/17 10:08:46;;;;;;;3.62;2.15;;;27.00;59.80;;;;;;2293854;55;20957;-69
2023/07/17 10:11:18;;;;;;;5.32;2.80;;;27.10;59.90;;;;;;2292742;55;20956;-67
2023/07/17 10:13:46;;;;;;;4.43;2.08;;;27.10;59.40;;;;;;2527608;54;20964;-67
2023/07/17 10:16:14;;;;;;;6.20;2.75;;;27.20;59.50;;;;;;2527769;54;20972;-72
2023/07/17 10:18:53;;;;;;;5.85;2.72;;;27.20;59.30;;;;;;2527638;54;20984;-68
2023/07/17 10:21:19;;;;;;;4.87;2.30;;;27.30;58.20;;;;;;2292729;55;20968;-71
2023/07/17 10:23:47;;;;;;;5.18;2.47;;;27.40;59.30;;;;;;2291999;55;20897;-69
2023/07/17 10:26:16;;;;;;;4.60;2.35;;;27.40;59.20;;;;;;2527463;54;21649;-72
2023/07/17 10:28:52;;;;;;;4.35;2.05;;;27.50;59.20;;;;;;2293108;55;20968;-69
2023/07/17 10:31:28;;;;;;;4.22;2.35;;;27.60;58.50;;;;;;2292755;55;20932;-69
2023/07/17 10:34:03;;;;;;;5.43;2.20;;;27.60;58.90;;;;;;2292165;55;21950;-72
2023/07/17 10:36:41;;;;;;;5.57;2.05;;;27.70;57.60;;;;;;2293243;55;20960;-69
2023/07/17 10:39:07;;;;;;;4.57;2.22;;;27.70;57.80;;;;;;2528134;54;21035;-72
2023/07/17 10:41:36;;;;;;;4.65;2.25;;;27.80;58.70;;;;;;2528374;54;20936;-70
2023/07/17 10:44:08;;;;;;;4.03;2.10;;;27.80;58.10;;;;;;2292588;55;20960;-71
2023/07/17 10:46:43;;;;;;;6.05;2.60;;;27.90;58.30;;;;;;2527434;54;20896;-72
2023/07/17 10:49:13;;;;;;;4.18;2.30;;;27.90;58.10;;;;;;2292452;55;20943;-69
2023/07/17 10:51:49;;;;;;;4.37;2.37;;;28.00;58.00;;;;;;2292547;55;20904;-73
2023/07/17 10:54:16;;;;;;;3.62;1.87;;;28.10;56.80;;;;;;2292044;55;20972;-69
2023/07/17 10:56:45;;;;;;;4.50;2.05;;;28.10;58.00;;;;;;2528368;54;21417;-69
2023/07/17 10:59:12;;;;;;;5.80;2.40;;;28.10;57.90;;;;;;2292497;55;20908;-70
2023/07/17 11:01:42;;;;;;;6.97;2.53;;;28.20;57.40;;;;;;2292896;55;20944;-68
2023/07/17 11:04:09;;;;;;;5.70;2.35;;;28.20;57.30;;;;;;2516706;54;21014;-69
2023/07/17 11:06:35;;;;;;;4.75;2.47;;;28.20;57.20;;;;;;2280049;55;20999;-69
2023/07/17 11:09:02;;;;;;;5.47;2.42;;;28.30;56.90;;;;;;2292904;55;21449;-68
2023/07/17 11:11:29;;;;;;;4.32;2.45;;;28.30;56.90;;;;;;2293016;56;21800;-68
2023/07/17 11:13:55;;;;;;;4.07;2.12;;;28.30;56.80;;;;;;2527376;54;20917;-72
2023/07/17 11:16:22;;;;;;;4.72;2.22;;;28.40;56.90;;;;;;2292699;56;21039;-68
2023/07/17 11:18:50;;;;;;;5.60;2.42;;;28.40;56.70;;;;;;2292577;55;20984;-67
2023/07/17 11:21:17;;;;;;;4.57;2.20;;;28.40;56.70;;;;;;2280506;55;20942;-72
2023/07/17 11:24:22;;;;;;;4.10;2.28;;;28.40;56.50;;;;;;2286473;55;20980;-69
2023/07/17 11:26:53;;;;;;;4.47;2.33;;;28.50;55.10;;;;;;2291208;55;21002;-68
2023/07/17 11:29:24;;;;;;;5.45;2.20;;;28.60;56.10;;;;;;2276182;55;21035;-69
2023/07/17 11:31:56;;;;;;;3.85;1.85;;;28.60;56.60;;;;;;2292392;55;20944;-71
2023/07/17 11:34:22;;;;;;;5.22;2.60;;;28.70;56.00;;;;;;2527949;54;21043;-71
2023/07/17 11:36:49;;;;;;;3.28;2.00;;;28.70;56.80;;;;;;2528128;54;20968;-69
2023/07/17 11:39:18;;;;;;;4.00;2.10;;;28.70;56.90;;;;;;2502456;54;20885;-70
2023/07/17 11:41:46;;;;;;;3.60;2.15;;;28.80;56.50;;;;;;2293157;55;20932;-70
2023/07/17 11:44:29;;;;;;;5.78;2.42;;;28.80;56.70;;;;;;2292508;55;21732;-69
2023/07/17 11:46:57;;;;;;;4.50;2.45;;;28.90;56.40;;;;;;2292078;56;21000;-69
2023/07/17 11:49:26;;;;;;;4.37;2.30;;;28.90;56.40;;;;;;2292752;55;20940;-69
2023/07/17 11:51:55;;;;;;;11.60;8.25;;;29.00;56.10;;;;;;2279596;55;21025;-70
2023/07/17 11:54:27;;;;;;;6.00;3.35;;;29.00;55.80;;;;;;2522066;54;20992;-69
2023/07/17 11:56:59;;;;;;;4.55;2.58;;;29.00;56.10;;;;;;2279531;55;20941;-68
2023/07/17 11:59:30;;;;;;;4.97;2.55;;;29.00;55.40;;;;;;2288445;55;20936;-69
2023/07/17 12:01:56;;;;;;;4.62;2.60;;;29.10;55.30;;;;;;2527535;54;20928;-69
2023/07/17 12:04:26;;;;;;;4.85;2.30;;;29.10;55.70;;;;;;2274491;55;21018;-69
2023/07/17 12:06:53;;;;;;;3.90;2.45;;;29.10;55.00;;;;;;2527616;54;20908;-70
2023/07/17 12:09:20;;;;;;;4.45;2.55;;;29.10;55.60;;;;;;2292041;56;21039;-69
2023/07/17 12:11:49;;;;;;;5.12;2.90;;;29.10;55.40;;;;;;2291933;56;21403;-71
2023/07/17 12:14:16;;;;;;;4.68;2.28;;;29.10;55.50;;;;;;2527183;54;20956;-68
2023/07/17 12:16:45;;;;;;;5.22;2.72;;;29.10;55.30;;;;;;2292679;56;21054;-68
2023/07/17 12:19:12;;;;;;;4.60;2.62;;;29.00;55.20;;;;;;2292232;55;20936;-68
2023/07/17 12:21:38;;;;;;;4.25;2.53;;;29.00;55.30;;;;;;2292132;56;20944;-68
2023/07/17 12:24:06;;;;;;;5.15;2.20;;;29.10;55.70;;;;;;2292172;55;20976;-70
2023/07/17 12:26:34;;;;;;;4.75;2.70;;;29.10;55.70;;;;;;2273657;55;21021;-70
2023/07/17 12:29:00;;;;;;;4.20;2.60;;;29.10;55.60;;;;;;2292895;55;21080;-68
2023/07/17 12:31:26;;;;;;;4.50;2.65;;;29.10;55.60;;;;;;2292159;55;20940;-72
2023/07/17 12:33:53;;;;;;;5.68;2.62;;;29.10;55.60;;;;;;2526677;54;20953;-67
2023/07/17 12:36:19;;;;;;;4.53;2.33;;;29.10;55.70;;;;;;2291930;55;22012;-69
2023/07/17 12:38:45;;;;;;;4.53;2.30;;;29.10;55.70;;;;;;2292214;55;20968;-69
2023/07/17 12:41:12;;;;;;;4.90;2.87;;;29.10;55.70;;;;;;2282681;55;21037;-70
2023/07/17 12:43:42;;;;;;;4.03;2.53;;;29.20;55.70;;;;;;2517603;54;20916;-72
2023/07/17 12:46:09;;;;;;;3.75;2.28;;;29.20;55.40;;;;;;2527164;54;20948;-72
2023/07/17 12:48:36;;;;;;;5.07;2.45;;;29.20;55.90;;;;;;2292470;55;20912;-68